sensor_id;sensor_type;location;lat;lon;timestamp;temperature;humidity
81630;DHT22;71039;49.500;10.418;2023-07-28T00:01:34;20.00;64.40
81630;DHT22;71039;49.500;10.418;2023-07-28T00:03:59;20.00;64.40
81630;DHT22;71039;49.500;10.418;2023-07-28T00:06:25;20.00;64.50
81630;DHT22;71039;49.500;10.418;2023-07-28T00:08:50;20.00;64.60
81630;DHT22;71039;49.500;10.418;2023-07-28T00:11:16;20.00;64.60
81630;DHT22;71039;49.500;10.418;2023-07-28T00:13:42;20.00;64.60
81630;DHT22;71039;49.500;10.418;2023-07-28T00:16:09;20.00;64.60
81630;DHT22;71039;49.500;10.418;2023-07-28T00:18:35;20.00;64.70
81630;DHT22;71039;49.500;10.418;2023-07-28T00:21:01;19.90;64.70
81630;DHT22;71039;49.500;10.418;2023-07-28T00:23:27;19.90;64.80
81630;DHT22;71039;49.500;10.418;2023-07-28T00:25:53;19.90;64.80
81630;DHT22;71039;49.500;10.418;2023-07-28T00:28:18;19.90;64.80
81630;DHT22;71039;49.500;10.418;2023-07-28T00:30:44;19.90;64.90
81630;DHT22;71039;49.500;10.418;2023-07-28T00:33:09;19.90;64.90
81630;DHT22;71039;49.500;10.418;2023-07-28T00:35:37;19.90;64.90
81630;DHT22;71039;49.500;10.418;2023-07-28T00:38:02;19.90;64.90
81630;DHT22;71039;49.500;10.418;2023-07-28T00:40:28;19.90;64.90
81630;DHT22;71039;49.500;10.418;2023-07-28T00:42:53;19.90;65.00
81630;DHT22;71039;49.500;10.418;2023-07-28T00:45:19;19.90;65.00
81630;DHT22;71039;49.500;10.418;2023-07-28T00:47:46;19.90;65.00
81630;DHT22;71039;49.500;10.418;2023-07-28T00:50:11;19.90;65.00
81630;DHT22;71039;49.500;10.418;2023-07-28T00:52:39;19.90;65.10
81630;DHT22;71039;49.500;10.418;2023-07-28T00:55:06;19.80;65.10
81630;DHT22;71039;49.500;10.418;2023-07-28T00:57:31;19.80;65.10
81630;DHT22;71039;49.500;10.418;2023-07-28T00:59:57;19.80;65.20
81630;DHT22;71039;49.500;10.418;2023-07-28T01:02:23;19.80;65.30
81630;DHT22;71039;49.500;10.418;2023-07-28T01:04:49;19.80;65.30
81630;DHT22;71039;49.500;10.418;2023-07-28T01:10:02;19.80;65.70
81630;DHT22;71039;49.500;10.418;2023-07-28T01:12:31;19.80;65.50
81630;DHT22;71039;49.500;10.418;2023-07-28T01:14:56;19.80;65.40
81630;DHT22;71039;49.500;10.418;2023-07-28T01:17:22;19.80;65.40
81630;DHT22;71039;49.500;10.418;2023-07-28T01:19:48;19.80;65.50
81630;DHT22;71039;49.500;10.418;2023-07-28T01:25:13;19.70;65.70
81630;DHT22;71039;49.500;10.418;2023-07-28T01:27:42;19.70;65.70
81630;DHT22;71039;49.500;10.418;2023-07-28T01:30:09;19.70;65.60
81630;DHT22;71039;49.500;10.418;2023-07-28T01:32:36;19.70;65.60
81630;DHT22;71039;49.500;10.418;2023-07-28T01:35:02;19.70;65.70
81630;DHT22;71039;49.500;10.418;2023-07-28T01:37:28;19.70;65.60
81630;DHT22;71039;49.500;10.418;2023-07-28T01:39:54;19.70;65.70
81630;DHT22;71039;49.500;10.418;2023-07-28T01:42:19;19.70;65.70
81630;DHT22;71039;49.500;10.418;2023-07-28T01:44:45;19.70;65.70
81630;DHT22;71039;49.500;10.418;2023-07-28T01:47:10;19.70;65.80
81630;DHT22;71039;49.500;10.418;2023-07-28T01:49:36;19.70;65.90
81630;DHT22;71039;49.500;10.418;2023-07-28T01:52:02;19.70;65.90
81630;DHT22;71039;49.500;10.418;2023-07-28T01:54:27;19.70;65.90
81630;DHT22;71039;49.500;10.418;2023-07-28T01:56:53;19.70;66.00
81630;DHT22;71039;49.500;10.418;2023-07-28T01:59:19;19.70;66.00
81630;DHT22;71039;49.500;10.418;2023-07-28T02:01:44;19.70;65.90
81630;DHT22;71039;49.500;10.418;2023-07-28T02:04:10;19.70;66.00
81630;DHT22;71039;49.500;10.418;2023-07-28T02:06:35;19.60;66.10
81630;DHT22;71039;49.500;10.418;2023-07-28T02:09:01;19.60;66.10
81630;DHT22;71039;49.500;10.418;2023-07-28T02:11:27;19.60;66.20
81630;DHT22;71039;49.500;10.418;2023-07-28T02:13:52;19.60;66.20
81630;DHT22;71039;49.500;10.418;2023-07-28T02:16:18;19.50;66.30
81630;DHT22;71039;49.500;10.418;2023-07-28T02:18:43;19.50;66.40
81630;DHT22;71039;49.500;10.418;2023-07-28T02:21:09;19.50;66.40
81630;DHT22;71039;49.500;10.418;2023-07-28T02:23:34;19.50;66.50
81630;DHT22;71039;49.500;10.418;2023-07-28T02:26:00;19.50;66.60
81630;DHT22;71039;49.500;10.418;2023-07-28T02:28:26;19.50;66.70
81630;DHT22;71039;49.500;10.418;2023-07-28T02:30:52;19.50;66.80
81630;DHT22;71039;49.500;10.418;2023-07-28T02:33:18;19.50;66.80
81630;DHT22;71039;49.500;10.418;2023-07-28T02:35:43;19.50;66.90
81630;DHT22;71039;49.500;10.418;2023-07-28T02:38:09;19.50;67.00
81630;DHT22;71039;49.500;10.418;2023-07-28T02:40:34;19.50;67.10
81630;DHT22;71039;49.500;10.418;2023-07-28T02:43:00;19.50;67.20
81630;DHT22;71039;49.500;10.418;2023-07-28T02:45:25;19.50;67.20
81630;DHT22;71039;49.500;10.418;2023-07-28T02:47:51;19.50;67.20
81630;DHT22;71039;49.500;10.418;2023-07-28T02:50:17;19.40;67.30
81630;DHT22;71039;49.500;10.418;2023-07-28T02:52:43;19.50;67.30
81630;DHT22;71039;49.500;10.418;2023-07-28T02:55:08;19.40;67.40
81630;DHT22;71039;49.500;10.418;2023-07-28T02:57:34;19.40;67.40
81630;DHT22;71039;49.500;10.418;2023-07-28T03:00:00;19.40;67.50
81630;DHT22;71039;49.500;10.418;2023-07-28T03:02:25;19.50;67.50
81630;DHT22;71039;49.500;10.418;2023-07-28T03:04:53;19.50;67.60
81630;DHT22;71039;49.500;10.418;2023-07-28T03:07:21;19.40;67.60
81630;DHT22;71039;49.500;10.418;2023-07-28T03:09:53;19.50;67.60
81630;DHT22;71039;49.500;10.418;2023-07-28T03:12:19;19.50;67.60
81630;DHT22;71039;49.500;10.418;2023-07-28T03:14:44;19.50;67.60
81630;DHT22;71039;49.500;10.418;2023-07-28T03:17:10;19.50;67.70
81630;DHT22;71039;49.500;10.418;2023-07-28T03:19:35;19.50;67.70
81630;DHT22;71039;49.500;10.418;2023-07-28T03:22:01;19.50;67.70
81630;DHT22;71039;49.500;10.418;2023-07-28T03:24:26;19.50;67.70
81630;DHT22;71039;49.500;10.418;2023-07-28T03:26:52;19.50;67.70
81630;DHT22;71039;49.500;10.418;2023-07-28T03:29:17;19.50;67.70
81630;DHT22;71039;49.500;10.418;2023-07-28T03:31:43;19.50;67.70
81630;DHT22;71039;49.500;10.418;2023-07-28T03:34:08;19.50;67.70
81630;DHT22;71039;49.500;10.418;2023-07-28T03:36:34;19.50;67.70
81630;DHT22;71039;49.500;10.418;2023-07-28T03:39:00;19.50;67.80
81630;DHT22;71039;49.500;10.418;2023-07-28T03:41:26;19.50;67.80
81630;DHT22;71039;49.500;10.418;2023-07-28T03:43:52;19.50;67.80
81630;DHT22;71039;49.500;10.418;2023-07-28T03:46:18;19.50;67.80
81630;DHT22;71039;49.500;10.418;2023-07-28T03:48:43;19.50;67.90
81630;DHT22;71039;49.500;10.418;2023-07-28T03:51:09;19.50;67.90
81630;DHT22;71039;49.500;10.418;2023-07-28T03:53:35;19.50;67.90
81630;DHT22;71039;49.500;10.418;2023-07-28T03:56:00;19.50;67.90
81630;DHT22;71039;49.500;10.418;2023-07-28T03:58:26;19.50;67.90
81630;DHT22;71039;49.500;10.418;2023-07-28T04:00:53;19.50;67.80
81630;DHT22;71039;49.500;10.418;2023-07-28T04:03:18;19.50;67.80
81630;DHT22;71039;49.500;10.418;2023-07-28T04:05:44;19.50;67.90
81630;DHT22;71039;49.500;10.418;2023-07-28T04:08:09;19.50;67.80
81630;DHT22;71039;49.500;10.418;2023-07-28T04:10:35;19.50;67.90
81630;DHT22;71039;49.500;10.418;2023-07-28T04:13:00;19.50;67.90
81630;DHT22;71039;49.500;10.418;2023-07-28T04:15:26;19.50;67.90
81630;DHT22;71039;49.500;10.418;2023-07-28T04:17:52;19.50;67.90
81630;DHT22;71039;49.500;10.418;2023-07-28T04:20:18;19.50;68.00
81630;DHT22;71039;49.500;10.418;2023-07-28T04:22:43;19.50;67.90
81630;DHT22;71039;49.500;10.418;2023-07-28T04:25:09;19.50;67.90
81630;DHT22;71039;49.500;10.418;2023-07-28T04:27:37;19.50;67.90
81630;DHT22;71039;49.500;10.418;2023-07-28T04:30:05;19.50;68.00
81630;DHT22;71039;49.500;10.418;2023-07-28T04:32:31;19.50;68.00
81630;DHT22;71039;49.500;10.418;2023-07-28T04:35:02;19.50;68.00
81630;DHT22;71039;49.500;10.418;2023-07-28T04:37:45;19.50;68.10
81630;DHT22;71039;49.500;10.418;2023-07-28T04:40:14;19.50;68.20
81630;DHT22;71039;49.500;10.418;2023-07-28T04:42:40;19.50;68.20
81630;DHT22;71039;49.500;10.418;2023-07-28T04:45:07;19.50;68.20
81630;DHT22;71039;49.500;10.418;2023-07-28T04:47:32;19.50;68.20
81630;DHT22;71039;49.500;10.418;2023-07-28T04:49:58;19.50;68.20
81630;DHT22;71039;49.500;10.418;2023-07-28T04:52:24;19.50;68.30
81630;DHT22;71039;49.500;10.418;2023-07-28T04:55:18;19.50;68.30
81630;DHT22;71039;49.500;10.418;2023-07-28T04:57:43;19.60;68.20
81630;DHT22;71039;49.500;10.418;2023-07-28T05:00:10;19.60;68.30
81630;DHT22;71039;49.500;10.418;2023-07-28T05:02:36;19.60;68.30
81630;DHT22;71039;49.500;10.418;2023-07-28T05:05:02;19.60;68.30
81630;DHT22;71039;49.500;10.418;2023-07-28T05:07:27;19.70;68.30
81630;DHT22;71039;49.500;10.418;2023-07-28T05:09:53;19.70;68.30
81630;DHT22;71039;49.500;10.418;2023-07-28T05:12:20;19.70;68.20
81630;DHT22;71039;49.500;10.418;2023-07-28T05:14:47;19.70;68.30
81630;DHT22;71039;49.500;10.418;2023-07-28T05:17:17;19.70;68.30
81630;DHT22;71039;49.500;10.418;2023-07-28T05:19:58;19.70;68.30
81630;DHT22;71039;49.500;10.418;2023-07-28T05:22:45;19.70;68.40
81630;DHT22;71039;49.500;10.418;2023-07-28T05:25:11;19.70;68.40
81630;DHT22;71039;49.500;10.418;2023-07-28T05:27:40;19.70;68.40
81630;DHT22;71039;49.500;10.418;2023-07-28T05:30:06;19.70;68.50
81630;DHT22;71039;49.500;10.418;2023-07-28T05:32:32;19.70;68.40
81630;DHT22;71039;49.500;10.418;2023-07-28T05:35:07;19.70;68.50
81630;DHT22;71039;49.500;10.418;2023-07-28T05:37:32;19.80;68.50
81630;DHT22;71039;49.500;10.418;2023-07-28T05:39:58;19.80;68.50
81630;DHT22;71039;49.500;10.418;2023-07-28T05:42:23;19.90;68.50
81630;DHT22;71039;49.500;10.418;2023-07-28T05:44:49;19.90;68.60
81630;DHT22;71039;49.500;10.418;2023-07-28T05:47:15;19.90;68.60
81630;DHT22;71039;49.500;10.418;2023-07-28T05:49:40;19.90;68.50
81630;DHT22;71039;49.500;10.418;2023-07-28T05:52:06;19.90;68.60
81630;DHT22;71039;49.500;10.418;2023-07-28T05:54:32;20.00;68.60
81630;DHT22;71039;49.500;10.418;2023-07-28T05:56:57;20.00;68.70
81630;DHT22;71039;49.500;10.418;2023-07-28T05:59:23;20.00;68.70
81630;DHT22;71039;49.500;10.418;2023-07-28T06:01:48;20.00;68.70
81630;DHT22;71039;49.500;10.418;2023-07-28T06:04:29;20.00;68.80
81630;DHT22;71039;49.500;10.418;2023-07-28T06:06:58;20.00;68.70
81630;DHT22;71039;49.500;10.418;2023-07-28T06:09:23;20.10;68.70
81630;DHT22;71039;49.500;10.418;2023-07-28T06:11:49;20.10;68.60
81630;DHT22;71039;49.500;10.418;2023-07-28T06:14:14;20.10;68.60
81630;DHT22;71039;49.500;10.418;2023-07-28T06:16:40;20.10;68.60
81630;DHT22;71039;49.500;10.418;2023-07-28T06:19:06;20.20;68.60
81630;DHT22;71039;49.500;10.418;2023-07-28T06:21:33;20.20;68.50
81630;DHT22;71039;49.500;10.418;2023-07-28T06:23:58;20.20;68.50
81630;DHT22;71039;49.500;10.418;2023-07-28T06:26:24;20.20;68.50
81630;DHT22;71039;49.500;10.418;2023-07-28T06:28:49;20.30;68.40
81630;DHT22;71039;49.500;10.418;2023-07-28T06:31:15;20.30;68.40
81630;DHT22;71039;49.500;10.418;2023-07-28T06:33:41;20.30;68.30
81630;DHT22;71039;49.500;10.418;2023-07-28T06:36:07;20.30;68.30
81630;DHT22;71039;49.500;10.418;2023-07-28T06:38:32;20.30;68.30
81630;DHT22;71039;49.500;10.418;2023-07-28T06:40:58;20.30;68.30
81630;DHT22;71039;49.500;10.418;2023-07-28T06:43:24;20.30;68.50
81630;DHT22;71039;49.500;10.418;2023-07-28T06:45:51;20.30;68.50
81630;DHT22;71039;49.500;10.418;2023-07-28T06:48:17;20.30;68.50
81630;DHT22;71039;49.500;10.418;2023-07-28T06:50:43;20.30;68.50
81630;DHT22;71039;49.500;10.418;2023-07-28T06:53:08;20.30;68.50
81630;DHT22;71039;49.500;10.418;2023-07-28T06:55:34;20.30;68.50
81630;DHT22;71039;49.500;10.418;2023-07-28T06:58:03;20.40;68.50
81630;DHT22;71039;49.500;10.418;2023-07-28T07:00:29;20.50;68.60
81630;DHT22;71039;49.500;10.418;2023-07-28T07:02:54;20.50;68.70
81630;DHT22;71039;49.500;10.418;2023-07-28T07:05:20;20.50;68.70
81630;DHT22;71039;49.500;10.418;2023-07-28T07:07:45;20.50;68.70
81630;DHT22;71039;49.500;10.418;2023-07-28T07:10:11;20.50;68.70
81630;DHT22;71039;49.500;10.418;2023-07-28T07:12:36;20.50;68.80
81630;DHT22;71039;49.500;10.418;2023-07-28T07:15:02;20.60;68.70
81630;DHT22;71039;49.500;10.418;2023-07-28T07:17:28;20.60;68.80
81630;DHT22;71039;49.500;10.418;2023-07-28T07:19:53;20.70;69.00
81630;DHT22;71039;49.500;10.418;2023-07-28T07:22:19;20.70;69.00
81630;DHT22;71039;49.500;10.418;2023-07-28T07:24:44;20.80;68.90
81630;DHT22;71039;49.500;10.418;2023-07-28T07:27:10;20.80;68.90
81630;DHT22;71039;49.500;10.418;2023-07-28T07:29:35;20.80;69.00
81630;DHT22;71039;49.500;10.418;2023-07-28T07:34:27;21.00;69.20
81630;DHT22;71039;49.500;10.418;2023-07-28T07:36:53;21.00;69.10
81630;DHT22;71039;49.500;10.418;2023-07-28T07:39:18;21.10;69.00
81630;DHT22;71039;49.500;10.418;2023-07-28T07:41:44;21.10;69.00
81630;DHT22;71039;49.500;10.418;2023-07-28T07:44:09;21.20;69.00
81630;DHT22;71039;49.500;10.418;2023-07-28T07:46:35;21.30;68.90
81630;DHT22;71039;49.500;10.418;2023-07-28T07:49:00;21.40;68.90
81630;DHT22;71039;49.500;10.418;2023-07-28T07:51:26;21.50;69.00
81630;DHT22;71039;49.500;10.418;2023-07-28T07:53:52;21.50;68.90
81630;DHT22;71039;49.500;10.418;2023-07-28T07:56:17;21.60;68.70
81630;DHT22;71039;49.500;10.418;2023-07-28T07:58:43;21.70;68.50
81630;DHT22;71039;49.500;10.418;2023-07-28T08:01:08;21.80;68.40
81630;DHT22;71039;49.500;10.418;2023-07-28T08:03:34;21.90;68.20
81630;DHT22;71039;49.500;10.418;2023-07-28T08:05:59;21.90;68.80
81630;DHT22;71039;49.500;10.418;2023-07-28T08:08:25;22.00;69.30
81630;DHT22;71039;49.500;10.418;2023-07-28T08:10:51;22.20;69.40
81630;DHT22;71039;49.500;10.418;2023-07-28T08:13:16;22.30;69.00
81630;DHT22;71039;49.500;10.418;2023-07-28T08:15:46;22.50;68.50
81630;DHT22;71039;49.500;10.418;2023-07-28T08:18:12;22.60;68.00
81630;DHT22;71039;49.500;10.418;2023-07-28T08:20:38;22.70;67.80
81630;DHT22;71039;49.500;10.418;2023-07-28T08:23:03;22.80;67.50
81630;DHT22;71039;49.500;10.418;2023-07-28T08:25:29;22.90;67.20
81630;DHT22;71039;49.500;10.418;2023-07-28T08:27:54;23.00;67.00
81630;DHT22;71039;49.500;10.418;2023-07-28T08:30:20;23.00;66.60
81630;DHT22;71039;49.500;10.418;2023-07-28T08:32:46;23.10;66.40
81630;DHT22;71039;49.500;10.418;2023-07-28T08:35:11;23.20;66.30
81630;DHT22;71039;49.500;10.418;2023-07-28T08:37:37;23.20;66.00
81630;DHT22;71039;49.500;10.418;2023-07-28T08:40:03;23.30;65.70
81630;DHT22;71039;49.500;10.418;2023-07-28T08:42:36;23.30;65.50
81630;DHT22;71039;49.500;10.418;2023-07-28T08:45:03;23.40;65.30
81630;DHT22;71039;49.500;10.418;2023-07-28T08:47:29;23.40;65.40
81630;DHT22;71039;49.500;10.418;2023-07-28T08:49:54;23.50;65.40
81630;DHT22;71039;49.500;10.418;2023-07-28T08:52:20;23.50;65.20
81630;DHT22;71039;49.500;10.418;2023-07-28T08:54:45;23.60;65.10
81630;DHT22;71039;49.500;10.418;2023-07-28T08:57:11;23.60;64.90
81630;DHT22;71039;49.500;10.418;2023-07-28T08:59:36;23.60;64.80
81630;DHT22;71039;49.500;10.418;2023-07-28T09:02:02;23.70;64.70
81630;DHT22;71039;49.500;10.418;2023-07-28T09:04:28;23.70;64.30
81630;DHT22;71039;49.500;10.418;2023-07-28T09:06:53;23.70;63.90
81630;DHT22;71039;49.500;10.418;2023-07-28T09:09:21;23.70;63.60
81630;DHT22;71039;49.500;10.418;2023-07-28T09:11:48;23.70;63.40
81630;DHT22;71039;49.500;10.418;2023-07-28T09:14:15;23.60;63.30
81630;DHT22;71039;49.500;10.418;2023-07-28T09:16:40;23.60;63.30
81630;DHT22;71039;49.500;10.418;2023-07-28T09:19:07;23.60;63.50
81630;DHT22;71039;49.500;10.418;2023-07-28T09:21:33;23.60;63.40
81630;DHT22;71039;49.500;10.418;2023-07-28T09:24:11;23.60;63.20
81630;DHT22;71039;49.500;10.418;2023-07-28T09:26:38;23.60;63.00
81630;DHT22;71039;49.500;10.418;2023-07-28T09:29:22;23.60;63.00
81630;DHT22;71039;49.500;10.418;2023-07-28T09:31:49;23.50;62.80
81630;DHT22;71039;49.500;10.418;2023-07-28T09:34:26;23.50;62.90
81630;DHT22;71039;49.500;10.418;2023-07-28T09:36:55;23.50;62.80
81630;DHT22;71039;49.500;10.418;2023-07-28T09:39:21;23.50;63.20
81630;DHT22;71039;49.500;10.418;2023-07-28T09:41:47;23.40;63.40
81630;DHT22;71039;49.500;10.418;2023-07-28T09:44:13;23.50;64.00
81630;DHT22;71039;49.500;10.418;2023-07-28T09:46:50;23.50;64.60
81630;DHT22;71039;49.500;10.418;2023-07-28T09:49:21;23.50;64.50
81630;DHT22;71039;49.500;10.418;2023-07-28T09:51:48;23.60;64.40
81630;DHT22;71039;49.500;10.418;2023-07-28T09:54:17;23.70;64.40
81630;DHT22;71039;49.500;10.418;2023-07-28T09:56:46;23.70;64.30
81630;DHT22;71039;49.500;10.418;2023-07-28T09:59:16;23.90;65.50
81630;DHT22;71039;49.500;10.418;2023-07-28T10:01:44;24.00;65.50
81630;DHT22;71039;49.500;10.418;2023-07-28T10:04:10;24.20;65.50
81630;DHT22;71039;49.500;10.418;2023-07-28T10:06:36;24.40;65.20
81630;DHT22;71039;49.500;10.418;2023-07-28T10:09:02;24.50;64.60
81630;DHT22;71039;49.500;10.418;2023-07-28T10:11:28;24.70;63.80
81630;DHT22;71039;49.500;10.418;2023-07-28T10:13:54;24.80;63.20
81630;DHT22;71039;49.500;10.418;2023-07-28T10:16:29;25.00;62.80
81630;DHT22;71039;49.500;10.418;2023-07-28T10:18:54;25.00;62.80
81630;DHT22;71039;49.500;10.418;2023-07-28T10:21:20;25.10;62.70
81630;DHT22;71039;49.500;10.418;2023-07-28T10:23:56;25.20;62.70
81630;DHT22;71039;49.500;10.418;2023-07-28T10:26:39;25.30;62.00
81630;DHT22;71039;49.500;10.418;2023-07-28T10:29:09;25.40;61.60
81630;DHT22;71039;49.500;10.418;2023-07-28T10:31:35;25.50;61.60
81630;DHT22;71039;49.500;10.418;2023-07-28T10:34:01;25.60;61.50
81630;DHT22;71039;49.500;10.418;2023-07-28T10:36:33;25.60;61.30
81630;DHT22;71039;49.500;10.418;2023-07-28T10:39:13;25.80;60.80
81630;DHT22;71039;49.500;10.418;2023-07-28T10:41:38;25.80;60.80
81630;DHT22;71039;49.500;10.418;2023-07-28T10:44:04;25.80;60.60
81630;DHT22;71039;49.500;10.418;2023-07-28T10:46:30;26.00;60.70
81630;DHT22;71039;49.500;10.418;2023-07-28T10:48:55;26.00;60.70
81630;DHT22;71039;49.500;10.418;2023-07-28T10:51:22;26.10;60.70
81630;DHT22;71039;49.500;10.418;2023-07-28T10:53:55;26.20;60.00
81630;DHT22;71039;49.500;10.418;2023-07-28T10:56:21;26.40;59.40
81630;DHT22;71039;49.500;10.418;2023-07-28T10:58:54;26.40;59.10
81630;DHT22;71039;49.500;10.418;2023-07-28T11:01:21;26.50;59.00
81630;DHT22;71039;49.500;10.418;2023-07-28T11:03:46;26.50;59.00
81630;DHT22;71039;49.500;10.418;2023-07-28T11:06:12;26.60;59.00
81630;DHT22;71039;49.500;10.418;2023-07-28T11:08:37;26.60;58.90
81630;DHT22;71039;49.500;10.418;2023-07-28T11:11:04;26.70;58.70
81630;DHT22;71039;49.500;10.418;2023-07-28T11:13:30;26.80;58.80
81630;DHT22;71039;49.500;10.418;2023-07-28T11:15:55;26.90;58.60
81630;DHT22;71039;49.500;10.418;2023-07-28T11:18:21;27.00;58.30
81630;DHT22;71039;49.500;10.418;2023-07-28T11:20:46;27.10;57.80
81630;DHT22;71039;49.500;10.418;2023-07-28T11:23:13;27.10;57.60
81630;DHT22;71039;49.500;10.418;2023-07-28T11:25:39;27.20;57.50
81630;DHT22;71039;49.500;10.418;2023-07-28T11:28:06;27.20;57.20
81630;DHT22;71039;49.500;10.418;2023-07-28T11:30:36;27.30;57.00
81630;DHT22;71039;49.500;10.418;2023-07-28T11:33:03;27.30;56.50
81630;DHT22;71039;49.500;10.418;2023-07-28T11:35:28;27.40;56.70
81630;DHT22;71039;49.500;10.418;2023-07-28T11:37:55;27.40;57.10
81630;DHT22;71039;49.500;10.418;2023-07-28T11:40:22;27.50;57.00
81630;DHT22;71039;49.500;10.418;2023-07-28T11:42:50;27.50;57.00
81630;DHT22;71039;49.500;10.418;2023-07-28T11:45:18;27.60;57.00
81630;DHT22;71039;49.500;10.418;2023-07-28T11:48:03;27.80;56.80
81630;DHT22;71039;49.500;10.418;2023-07-28T11:50:30;27.80;56.60
81630;DHT22;71039;49.500;10.418;2023-07-28T11:52:59;27.90;56.50
81630;DHT22;71039;49.500;10.418;2023-07-28T11:55:25;28.10;56.10
81630;DHT22;71039;49.500;10.418;2023-07-28T11:57:53;28.10;55.80
81630;DHT22;71039;49.500;10.418;2023-07-28T12:00:28;28.20;55.80
81630;DHT22;71039;49.500;10.418;2023-07-28T12:03:04;28.30;55.40
81630;DHT22;71039;49.500;10.418;2023-07-28T12:05:30;28.40;55.10
81630;DHT22;71039;49.500;10.418;2023-07-28T12:07:56;28.50;55.00
81630;DHT22;71039;49.500;10.418;2023-07-28T12:10:21;28.50;54.40
81630;DHT22;71039;49.500;10.418;2023-07-28T12:12:47;28.50;53.80
81630;DHT22;71039;49.500;10.418;2023-07-28T12:15:20;28.50;53.50
81630;DHT22;71039;49.500;10.418;2023-07-28T12:20:38;28.50;51.60
81630;DHT22;71039;49.500;10.418;2023-07-28T12:23:04;28.40;52.40
81630;DHT22;71039;49.500;10.418;2023-07-28T12:25:30;28.30;52.60
81630;DHT22;71039;49.500;10.418;2023-07-28T12:27:56;28.30;52.50
81630;DHT22;71039;49.500;10.418;2023-07-28T12:30:22;28.20;52.60
81630;DHT22;71039;49.500;10.418;2023-07-28T12:32:47;28.10;53.00
81630;DHT22;71039;49.500;10.418;2023-07-28T12:35:13;28.10;53.40
81630;DHT22;71039;49.500;10.418;2023-07-28T12:37:39;28.10;53.70
81630;DHT22;71039;49.500;10.418;2023-07-28T12:40:05;28.10;53.60
81630;DHT22;71039;49.500;10.418;2023-07-28T12:42:31;28.20;53.40
81630;DHT22;71039;49.500;10.418;2023-07-28T12:44:56;28.30;53.20
81630;DHT22;71039;49.500;10.418;2023-07-28T12:47:22;28.30;53.20
81630;DHT22;71039;49.500;10.418;2023-07-28T12:49:47;28.40;53.00
81630;DHT22;71039;49.500;10.418;2023-07-28T12:52:13;28.50;52.60
81630;DHT22;71039;49.500;10.418;2023-07-28T12:54:38;28.50;52.30
81630;DHT22;71039;49.500;10.418;2023-07-28T12:57:04;28.50;52.00
81630;DHT22;71039;49.500;10.418;2023-07-28T12:59:30;28.50;51.70
81630;DHT22;71039;49.500;10.418;2023-07-28T13:01:55;28.50;51.70
81630;DHT22;71039;49.500;10.418;2023-07-28T13:04:21;28.50;51.70
81630;DHT22;71039;49.500;10.418;2023-07-28T13:06:47;28.50;51.60
81630;DHT22;71039;49.500;10.418;2023-07-28T13:09:12;28.50;51.50
81630;DHT22;71039;49.500;10.418;2023-07-28T13:11:38;28.50;51.40
81630;DHT22;71039;49.500;10.418;2023-07-28T13:14:03;28.50;51.30
81630;DHT22;71039;49.500;10.418;2023-07-28T13:16:29;28.50;51.00
81630;DHT22;71039;49.500;10.418;2023-07-28T13:18:54;28.50;51.00
81630;DHT22;71039;49.500;10.418;2023-07-28T13:21:20;28.50;51.10
81630;DHT22;71039;49.500;10.418;2023-07-28T13:23:45;28.50;51.10
81630;DHT22;71039;49.500;10.418;2023-07-28T13:26:11;28.50;50.90
81630;DHT22;71039;49.500;10.418;2023-07-28T13:28:36;28.50;50.70
81630;DHT22;71039;49.500;10.418;2023-07-28T13:31:03;28.60;50.70
81630;DHT22;71039;49.500;10.418;2023-07-28T13:33:28;28.60;50.70
81630;DHT22;71039;49.500;10.418;2023-07-28T13:35:54;28.60;50.70
81630;DHT22;71039;49.500;10.418;2023-07-28T13:38:19;28.60;50.70
81630;DHT22;71039;49.500;10.418;2023-07-28T13:40:45;28.60;50.90
81630;DHT22;71039;49.500;10.418;2023-07-28T13:43:10;28.60;50.80
81630;DHT22;71039;49.500;10.418;2023-07-28T13:45:36;28.60;50.40
81630;DHT22;71039;49.500;10.418;2023-07-28T13:48:01;28.60;50.20
81630;DHT22;71039;49.500;10.418;2023-07-28T13:50:27;28.60;50.10
81630;DHT22;71039;49.500;10.418;2023-07-28T13:52:52;28.60;50.00
81630;DHT22;71039;49.500;10.418;2023-07-28T13:55:18;28.60;50.00
81630;DHT22;71039;49.500;10.418;2023-07-28T13:57:43;28.50;49.90
81630;DHT22;71039;49.500;10.418;2023-07-28T14:00:09;28.50;49.80
81630;DHT22;71039;49.500;10.418;2023-07-28T14:02:39;28.40;49.70
81630;DHT22;71039;49.500;10.418;2023-07-28T14:05:05;28.30;49.60
81630;DHT22;71039;49.500;10.418;2023-07-28T14:07:31;28.30;49.70
81630;DHT22;71039;49.500;10.418;2023-07-28T14:09:56;28.30;49.70
81630;DHT22;71039;49.500;10.418;2023-07-28T14:12:22;28.20;49.60
81630;DHT22;71039;49.500;10.418;2023-07-28T14:14:48;28.10;49.50
81630;DHT22;71039;49.500;10.418;2023-07-28T14:17:13;28.10;49.40
81630;DHT22;71039;49.500;10.418;2023-07-28T14:19:39;28.00;49.50
81630;DHT22;71039;49.500;10.418;2023-07-28T14:22:04;27.90;49.70
81630;DHT22;71039;49.500;10.418;2023-07-28T14:24:30;27.80;49.90
81630;DHT22;71039;49.500;10.418;2023-07-28T14:26:56;27.70;50.10
81630;DHT22;71039;49.500;10.418;2023-07-28T14:29:21;27.60;50.20
81630;DHT22;71039;49.500;10.418;2023-07-28T14:31:47;27.50;50.30
81630;DHT22;71039;49.500;10.418;2023-07-28T14:34:12;27.50;50.50
81630;DHT22;71039;49.500;10.418;2023-07-28T14:36:38;27.40;50.60
81630;DHT22;71039;49.500;10.418;2023-07-28T14:39:04;27.40;50.60
81630;DHT22;71039;49.500;10.418;2023-07-28T14:41:30;27.40;50.50
81630;DHT22;71039;49.500;10.418;2023-07-28T14:43:55;27.30;50.50
81630;DHT22;71039;49.500;10.418;2023-07-28T14:46:21;27.30;50.40
81630;DHT22;71039;49.500;10.418;2023-07-28T14:48:46;27.20;50.30
81630;DHT22;71039;49.500;10.418;2023-07-28T14:51:12;27.20;50.30
81630;DHT22;71039;49.500;10.418;2023-07-28T14:53:38;27.10;50.30
81630;DHT22;71039;49.500;10.418;2023-07-28T14:56:05;27.00;50.30
81630;DHT22;71039;49.500;10.418;2023-07-28T14:58:31;26.90;50.30
81630;DHT22;71039;49.500;10.418;2023-07-28T15:00:57;26.80;50.30
81630;DHT22;71039;49.500;10.418;2023-07-28T15:03:25;26.70;50.30
81630;DHT22;71039;49.500;10.418;2023-07-28T15:05:51;26.60;50.50
81630;DHT22;71039;49.500;10.418;2023-07-28T15:08:16;26.50;50.60
81630;DHT22;71039;49.500;10.418;2023-07-28T15:10:42;26.40;50.80
81630;DHT22;71039;49.500;10.418;2023-07-28T15:13:07;26.30;51.00
81630;DHT22;71039;49.500;10.418;2023-07-28T15:15:33;26.20;51.20
81630;DHT22;71039;49.500;10.418;2023-07-28T15:17:58;26.10;51.40
81630;DHT22;71039;49.500;10.418;2023-07-28T15:20:24;26.00;51.50
81630;DHT22;71039;49.500;10.418;2023-07-28T15:22:49;26.00;51.80